sensor_id;sensor_type;location;lat;lon;timestamp;temperature;humidity
52034;DHT22;38045;52.988;6.536;2024-03-17T00:00:21;3.80;71.10
52034;DHT22;38045;52.988;6.536;2024-03-17T00:02:47;3.70;70.70
52034;DHT22;38045;52.988;6.536;2024-03-17T00:05:13;3.70;70.70
52034;DHT22;38045;52.988;6.536;2024-03-17T00:07:39;3.70;71.00
52034;DHT22;38045;52.988;6.536;2024-03-17T00:10:05;3.70;70.70
52034;DHT22;38045;52.988;6.536;2024-03-17T00:12:33;3.70;71.10
52034;DHT22;38045;52.988;6.536;2024-03-17T00:14:58;3.70;70.60
52034;DHT22;38045;52.988;6.536;2024-03-17T00:17:24;3.60;70.90
52034;DHT22;38045;52.988;6.536;2024-03-17T00:19:50;3.50;71.50
52034;DHT22;38045;52.988;6.536;2024-03-17T00:22:15;3.50;71.40
52034;DHT22;38045;52.988;6.536;2024-03-17T00:24:43;3.40;70.80
52034;DHT22;38045;52.988;6.536;2024-03-17T00:27:09;3.40;70.80
52034;DHT22;38045;52.988;6.536;2024-03-17T00:29:35;3.30;71.20
52034;DHT22;38045;52.988;6.536;2024-03-17T00:32:00;3.30;70.90
52034;DHT22;38045;52.988;6.536;2024-03-17T00:34:26;3.30;70.90
52034;DHT22;38045;52.988;6.536;2024-03-17T00:36:52;3.30;71.10
52034;DHT22;38045;52.988;6.536;2024-03-17T00:39:17;3.10;70.90
52034;DHT22;38045;52.988;6.536;2024-03-17T00:41:44;3.10;71.00
52034;DHT22;38045;52.988;6.536;2024-03-17T00:44:09;3.10;71.30
52034;DHT22;38045;52.988;6.536;2024-03-17T00:46:35;3.10;71.40
52034;DHT22;38045;52.988;6.536;2024-03-17T00:49:00;3.10;70.90
52034;DHT22;38045;52.988;6.536;2024-03-17T00:51:26;3.10;70.90
52034;DHT22;38045;52.988;6.536;2024-03-17T00:53:52;3.10;71.00
52034;DHT22;38045;52.988;6.536;2024-03-17T00:56:17;3.10;71.20
52034;DHT22;38045;52.988;6.536;2024-03-17T00:58:43;3.10;71.40
52034;DHT22;38045;52.988;6.536;2024-03-17T01:01:11;3.10;71.20
52034;DHT22;38045;52.988;6.536;2024-03-17T01:03:36;3.00;71.00
52034;DHT22;38045;52.988;6.536;2024-03-17T01:06:05;3.00;71.10
52034;DHT22;38045;52.988;6.536;2024-03-17T01:08:31;3.00;71.20
52034;DHT22;38045;52.988;6.536;2024-03-17T01:10:56;3.00;71.10
52034;DHT22;38045;52.988;6.536;2024-03-17T01:13:23;3.00;71.30
52034;DHT22;38045;52.988;6.536;2024-03-17T01:15:52;3.00;71.30
52034;DHT22;38045;52.988;6.536;2024-03-17T01:18:18;3.00;71.30
52034;DHT22;38045;52.988;6.536;2024-03-17T01:20:44;2.90;71.10
52034;DHT22;38045;52.988;6.536;2024-03-17T01:23:10;2.80;71.10
52034;DHT22;38045;52.988;6.536;2024-03-17T01:25:36;2.80;71.40
52034;DHT22;38045;52.988;6.536;2024-03-17T01:28:05;2.70;71.60
52034;DHT22;38045;52.988;6.536;2024-03-17T01:30:31;2.60;71.10
52034;DHT22;38045;52.988;6.536;2024-03-17T01:32:58;2.70;71.60
52034;DHT22;38045;52.988;6.536;2024-03-17T01:35:25;2.60;71.50
52034;DHT22;38045;52.988;6.536;2024-03-17T01:37:51;2.50;71.60
52034;DHT22;38045;52.988;6.536;2024-03-17T01:40:16;2.50;71.50
52034;DHT22;38045;52.988;6.536;2024-03-17T01:42:42;2.50;71.40
52034;DHT22;38045;52.988;6.536;2024-03-17T01:47:43;2.60;71.70
52034;DHT22;38045;52.988;6.536;2024-03-17T01:50:09;2.60;71.60
52034;DHT22;38045;52.988;6.536;2024-03-17T01:52:36;2.50;71.50
52034;DHT22;38045;52.988;6.536;2024-03-17T01:55:05;2.50;71.50
52034;DHT22;38045;52.988;6.536;2024-03-17T01:57:32;2.50;71.50
52034;DHT22;38045;52.988;6.536;2024-03-17T01:59:58;2.50;71.30
52034;DHT22;38045;52.988;6.536;2024-03-17T02:02:24;2.50;71.70
52034;DHT22;38045;52.988;6.536;2024-03-17T02:04:50;2.40;71.70
52034;DHT22;38045;52.988;6.536;2024-03-17T02:07:16;2.40;71.60
52034;DHT22;38045;52.988;6.536;2024-03-17T02:09:41;2.40;71.60
52034;DHT22;38045;52.988;6.536;2024-03-17T02:12:08;2.30;71.40
52034;DHT22;38045;52.988;6.536;2024-03-17T02:14:35;2.30;71.80
52034;DHT22;38045;52.988;6.536;2024-03-17T02:17:01;2.30;71.70
52034;DHT22;38045;52.988;6.536;2024-03-17T02:19:27;2.30;71.60
52034;DHT22;38045;52.988;6.536;2024-03-17T02:21:53;2.30;71.70
52034;DHT22;38045;52.988;6.536;2024-03-17T02:24:18;2.30;71.80
52034;DHT22;38045;52.988;6.536;2024-03-17T02:26:44;2.20;71.70
52034;DHT22;38045;52.988;6.536;2024-03-17T02:29:10;2.20;72.00
52034;DHT22;38045;52.988;6.536;2024-03-17T02:31:35;2.10;72.30
52034;DHT22;38045;52.988;6.536;2024-03-17T02:34:01;2.10;72.60
52034;DHT22;38045;52.988;6.536;2024-03-17T02:36:27;2.00;72.90
52034;DHT22;38045;52.988;6.536;2024-03-17T02:38:52;2.00;73.00
52034;DHT22;38045;52.988;6.536;2024-03-17T02:41:36;2.00;73.00
52034;DHT22;38045;52.988;6.536;2024-03-17T02:44:02;2.00;73.10
52034;DHT22;38045;52.988;6.536;2024-03-17T02:46:28;2.00;73.00
52034;DHT22;38045;52.988;6.536;2024-03-17T02:48:54;2.00;73.20
52034;DHT22;38045;52.988;6.536;2024-03-17T02:51:21;2.00;73.20
52034;DHT22;38045;52.988;6.536;2024-03-17T02:53:48;2.00;72.60
52034;DHT22;38045;52.988;6.536;2024-03-17T02:56:15;2.00;72.20
52034;DHT22;38045;52.988;6.536;2024-03-17T02:58:45;2.00;72.20
52034;DHT22;38045;52.988;6.536;2024-03-17T03:01:12;2.10;72.30
52034;DHT22;38045;52.988;6.536;2024-03-17T03:03:38;2.10;72.40
52034;DHT22;38045;52.988;6.536;2024-03-17T03:06:04;2.20;72.30
52034;DHT22;38045;52.988;6.536;2024-03-17T03:08:43;2.20;72.20
52034;DHT22;38045;52.988;6.536;2024-03-17T03:11:10;2.20;72.70
52034;DHT22;38045;52.988;6.536;2024-03-17T03:13:41;2.20;73.00
52034;DHT22;38045;52.988;6.536;2024-03-17T03:16:08;2.20;73.20
52034;DHT22;38045;52.988;6.536;2024-03-17T03:18:35;2.20;73.50
52034;DHT22;38045;52.988;6.536;2024-03-17T03:21:01;2.20;73.60
52034;DHT22;38045;52.988;6.536;2024-03-17T03:23:26;2.20;73.10
52034;DHT22;38045;52.988;6.536;2024-03-17T03:25:55;2.20;72.90
52034;DHT22;38045;52.988;6.536;2024-03-17T03:28:22;2.20;72.70
52034;DHT22;38045;52.988;6.536;2024-03-17T03:30:48;2.30;72.60
52034;DHT22;38045;52.988;6.536;2024-03-17T03:33:13;2.30;72.90
52034;DHT22;38045;52.988;6.536;2024-03-17T03:35:39;2.30;73.10
52034;DHT22;38045;52.988;6.536;2024-03-17T03:38:05;2.30;73.40
52034;DHT22;38045;52.988;6.536;2024-03-17T03:40:31;2.40;73.60
52034;DHT22;38045;52.988;6.536;2024-03-17T03:42:58;2.40;73.70
52034;DHT22;38045;52.988;6.536;2024-03-17T03:45:23;2.40;73.50
52034;DHT22;38045;52.988;6.536;2024-03-17T03:47:50;2.40;73.90
52034;DHT22;38045;52.988;6.536;2024-03-17T03:50:19;2.50;74.20
52034;DHT22;38045;52.988;6.536;2024-03-17T03:52:45;2.50;74.40
52034;DHT22;38045;52.988;6.536;2024-03-17T03:55:11;2.50;74.70
52034;DHT22;38045;52.988;6.536;2024-03-17T03:57:41;2.50;74.80
52034;DHT22;38045;52.988;6.536;2024-03-17T04:00:08;2.70;74.80
52034;DHT22;38045;52.988;6.536;2024-03-17T04:02:40;2.70;75.00
52034;DHT22;38045;52.988;6.536;2024-03-17T04:05:07;2.80;75.20
52034;DHT22;38045;52.988;6.536;2024-03-17T04:07:33;2.90;75.10
52034;DHT22;38045;52.988;6.536;2024-03-17T04:09:59;2.90;75.00
52034;DHT22;38045;52.988;6.536;2024-03-17T04:12:25;3.00;75.10
52034;DHT22;38045;52.988;6.536;2024-03-17T04:14:51;3.10;75.10
52034;DHT22;38045;52.988;6.536;2024-03-17T04:17:19;3.10;75.20
52034;DHT22;38045;52.988;6.536;2024-03-17T04:19:47;3.10;75.00
52034;DHT22;38045;52.988;6.536;2024-03-17T04:22:17;3.10;75.20
52034;DHT22;38045;52.988;6.536;2024-03-17T04:24:43;3.10;75.50
52034;DHT22;38045;52.988;6.536;2024-03-17T04:27:09;3.10;75.80
52034;DHT22;38045;52.988;6.536;2024-03-17T04:29:35;3.10;75.10
52034;DHT22;38045;52.988;6.536;2024-03-17T04:32:00;3.20;75.10
52034;DHT22;38045;52.988;6.536;2024-03-17T04:34:27;3.30;75.30
52034;DHT22;38045;52.988;6.536;2024-03-17T04:36:53;3.30;74.50
52034;DHT22;38045;52.988;6.536;2024-03-17T04:39:21;3.30;74.60
52034;DHT22;38045;52.988;6.536;2024-03-17T04:41:50;3.30;74.80
52034;DHT22;38045;52.988;6.536;2024-03-17T04:44:16;3.30;74.80
52034;DHT22;38045;52.988;6.536;2024-03-17T04:46:42;3.30;74.80
52034;DHT22;38045;52.988;6.536;2024-03-17T04:49:08;3.30;75.10
52034;DHT22;38045;52.988;6.536;2024-03-17T04:51:34;3.30;75.00
52034;DHT22;38045;52.988;6.536;2024-03-17T04:54:00;3.30;75.00
52034;DHT22;38045;52.988;6.536;2024-03-17T04:56:28;3.30;74.60
52034;DHT22;38045;52.988;6.536;2024-03-17T04:58:54;3.30;74.90
52034;DHT22;38045;52.988;6.536;2024-03-17T05:01:20;3.30;75.10
52034;DHT22;38045;52.988;6.536;2024-03-17T05:03:45;3.30;75.10
52034;DHT22;38045;52.988;6.536;2024-03-17T05:06:11;3.40;75.20
52034;DHT22;38045;52.988;6.536;2024-03-17T05:08:37;3.40;75.20
52034;DHT22;38045;52.988;6.536;2024-03-17T05:11:05;3.40;75.20
52034;DHT22;38045;52.988;6.536;2024-03-17T05:13:35;3.50;75.30
52034;DHT22;38045;52.988;6.536;2024-03-17T05:16:02;3.50;75.40
52034;DHT22;38045;52.988;6.536;2024-03-17T05:18:29;3.50;75.10
52034;DHT22;38045;52.988;6.536;2024-03-17T05:21:07;3.50;75.30
52034;DHT22;38045;52.988;6.536;2024-03-17T05:23:35;3.50;75.40
52034;DHT22;38045;52.988;6.536;2024-03-17T05:26:01;3.50;75.30
52034;DHT22;38045;52.988;6.536;2024-03-17T05:28:28;3.50;75.10
52034;DHT22;38045;52.988;6.536;2024-03-17T05:30:54;3.60;75.20
52034;DHT22;38045;52.988;6.536;2024-03-17T05:33:21;3.60;75.20
52034;DHT22;38045;52.988;6.536;2024-03-17T05:35:54;3.60;75.30
52034;DHT22;38045;52.988;6.536;2024-03-17T05:38:21;3.60;75.20
52034;DHT22;38045;52.988;6.536;2024-03-17T05:40:56;3.60;75.30
52034;DHT22;38045;52.988;6.536;2024-03-17T05:43:23;3.60;75.40
52034;DHT22;38045;52.988;6.536;2024-03-17T05:45:53;3.60;75.30
52034;DHT22;38045;52.988;6.536;2024-03-17T05:48:19;3.60;75.20
52034;DHT22;38045;52.988;6.536;2024-03-17T05:50:46;3.60;75.10
52034;DHT22;38045;52.988;6.536;2024-03-17T05:53:11;3.60;75.20
52034;DHT22;38045;52.988;6.536;2024-03-17T05:55:37;3.70;75.20
52034;DHT22;38045;52.988;6.536;2024-03-17T05:58:04;3.70;75.10
52034;DHT22;38045;52.988;6.536;2024-03-17T06:00:30;3.70;75.30
52034;DHT22;38045;52.988;6.536;2024-03-17T06:02:56;3.70;75.30
52034;DHT22;38045;52.988;6.536;2024-03-17T06:05:22;3.70;75.30
52034;DHT22;38045;52.988;6.536;2024-03-17T06:07:48;3.80;75.10
52034;DHT22;38045;52.988;6.536;2024-03-17T06:10:14;3.80;75.30
52034;DHT22;38045;52.988;6.536;2024-03-17T06:12:39;3.90;75.30
52034;DHT22;38045;52.988;6.536;2024-03-17T06:15:05;3.90;75.30
52034;DHT22;38045;52.988;6.536;2024-03-17T06:17:32;3.90;75.10
52034;DHT22;38045;52.988;6.536;2024-03-17T06:19:57;3.90;75.30
52034;DHT22;38045;52.988;6.536;2024-03-17T06:22:23;3.90;75.30
52034;DHT22;38045;52.988;6.536;2024-03-17T06:24:50;4.00;75.10
52034;DHT22;38045;52.988;6.536;2024-03-17T06:27:15;4.00;75.20
52034;DHT22;38045;52.988;6.536;2024-03-17T06:29:41;4.00;75.30
52034;DHT22;38045;52.988;6.536;2024-03-17T06:32:08;4.10;75.20
52034;DHT22;38045;52.988;6.536;2024-03-17T06:34:34;4.20;75.30
52034;DHT22;38045;52.988;6.536;2024-03-17T06:36:59;4.20;75.20
52034;DHT22;38045;52.988;6.536;2024-03-17T06:39:26;4.30;75.20
52034;DHT22;38045;52.988;6.536;2024-03-17T06:41:51;4.40;75.00
52034;DHT22;38045;52.988;6.536;2024-03-17T06:44:17;4.40;75.10
52034;DHT22;38045;52.988;6.536;2024-03-17T06:46:45;4.50;75.00
52034;DHT22;38045;52.988;6.536;2024-03-17T06:49:12;4.60;74.80
52034;DHT22;38045;52.988;6.536;2024-03-17T06:51:38;4.70;74.80
52034;DHT22;38045;52.988;6.536;2024-03-17T06:54:03;4.70;74.80
52034;DHT22;38045;52.988;6.536;2024-03-17T06:56:29;4.70;75.00
52034;DHT22;38045;52.988;6.536;2024-03-17T06:58:55;4.80;74.70
52034;DHT22;38045;52.988;6.536;2024-03-17T07:01:20;4.90;74.60
52034;DHT22;38045;52.988;6.536;2024-03-17T07:03:46;4.90;74.80
52034;DHT22;38045;52.988;6.536;2024-03-17T07:06:12;4.90;74.80
52034;DHT22;38045;52.988;6.536;2024-03-17T07:08:37;5.00;74.70
52034;DHT22;38045;52.988;6.536;2024-03-17T07:11:04;5.00;74.80
52034;DHT22;38045;52.988;6.536;2024-03-17T07:13:32;5.10;74.80
52034;DHT22;38045;52.988;6.536;2024-03-17T07:16:02;5.10;74.70
52034;DHT22;38045;52.988;6.536;2024-03-17T07:18:29;5.20;74.60
52034;DHT22;38045;52.988;6.536;2024-03-17T07:20:59;5.30;74.20
52034;DHT22;38045;52.988;6.536;2024-03-17T07:23:25;5.30;74.30
52034;DHT22;38045;52.988;6.536;2024-03-17T07:25:54;5.30;74.10
52034;DHT22;38045;52.988;6.536;2024-03-17T07:28:20;5.40;74.30
52034;DHT22;38045;52.988;6.536;2024-03-17T07:30:50;5.50;74.10
52034;DHT22;38045;52.988;6.536;2024-03-17T07:33:17;5.50;74.00
52034;DHT22;38045;52.988;6.536;2024-03-17T07:36:01;5.50;74.10
52034;DHT22;38045;52.988;6.536;2024-03-17T07:38:28;5.60;73.80
52034;DHT22;38045;52.988;6.536;2024-03-17T07:41:04;5.60;73.90
52034;DHT22;38045;52.988;6.536;2024-03-17T07:43:32;5.70;73.70
52034;DHT22;38045;52.988;6.536;2024-03-17T07:46:06;5.80;73.60
52034;DHT22;38045;52.988;6.536;2024-03-17T07:48:34;5.80;73.60
52034;DHT22;38045;52.988;6.536;2024-03-17T07:51:05;5.90;73.60
52034;DHT22;38045;52.988;6.536;2024-03-17T07:53:35;5.90;73.50
52034;DHT22;38045;52.988;6.536;2024-03-17T07:56:02;6.00;73.30
52034;DHT22;38045;52.988;6.536;2024-03-17T07:58:32;6.00;73.30
52034;DHT22;38045;52.988;6.536;2024-03-17T08:01:03;6.10;73.40
52034;DHT22;38045;52.988;6.536;2024-03-17T08:03:29;6.10;73.40
52034;DHT22;38045;52.988;6.536;2024-03-17T08:05:57;6.20;73.20
52034;DHT22;38045;52.988;6.536;2024-03-17T08:08:23;6.20;73.00
52034;DHT22;38045;52.988;6.536;2024-03-17T08:10:49;6.30;73.00
52034;DHT22;38045;52.988;6.536;2024-03-17T08:13:19;6.30;72.90
52034;DHT22;38045;52.988;6.536;2024-03-17T08:15:46;6.40;72.90
52034;DHT22;38045;52.988;6.536;2024-03-17T08:18:12;6.40;72.80
52034;DHT22;38045;52.988;6.536;2024-03-17T08:20:39;6.50;72.80
52034;DHT22;38045;52.988;6.536;2024-03-17T08:23:05;6.50;72.70
52034;DHT22;38045;52.988;6.536;2024-03-17T08:25:32;6.60;72.50
52034;DHT22;38045;52.988;6.536;2024-03-17T08:27:58;6.60;72.60
52034;DHT22;38045;52.988;6.536;2024-03-17T08:30:23;6.70;72.50
52034;DHT22;38045;52.988;6.536;2024-03-17T08:32:49;6.80;72.20
52034;DHT22;38045;52.988;6.536;2024-03-17T08:35:15;6.80;72.00
52034;DHT22;38045;52.988;6.536;2024-03-17T08:37:40;6.90;72.00
52034;DHT22;38045;52.988;6.536;2024-03-17T08:40:06;6.90;71.90
52034;DHT22;38045;52.988;6.536;2024-03-17T08:42:32;7.00;72.10
52034;DHT22;38045;52.988;6.536;2024-03-17T08:44:58;7.20;71.30
52034;DHT22;38045;52.988;6.536;2024-03-17T08:47:24;7.30;71.60
52034;DHT22;38045;52.988;6.536;2024-03-17T08:49:53;7.50;71.20
52034;DHT22;38045;52.988;6.536;2024-03-17T08:52:18;7.50;71.20
52034;DHT22;38045;52.988;6.536;2024-03-17T08:54:47;7.60;71.30
52034;DHT22;38045;52.988;6.536;2024-03-17T08:57:14;7.80;71.20
52034;DHT22;38045;52.988;6.536;2024-03-17T08:59:39;7.80;71.10
52034;DHT22;38045;52.988;6.536;2024-03-17T09:02:05;7.90;70.70
52034;DHT22;38045;52.988;6.536;2024-03-17T09:04:35;8.00;71.30
52034;DHT22;38045;52.988;6.536;2024-03-17T09:07:00;8.00;70.30
52034;DHT22;38045;52.988;6.536;2024-03-17T09:09:29;8.00;69.80
52034;DHT22;38045;52.988;6.536;2024-03-17T09:11:54;8.10;70.30
52034;DHT22;38045;52.988;6.536;2024-03-17T09:14:20;8.10;70.40
52034;DHT22;38045;52.988;6.536;2024-03-17T09:16:47;8.20;70.40
52034;DHT22;38045;52.988;6.536;2024-03-17T09:19:13;8.20;69.90
52034;DHT22;38045;52.988;6.536;2024-03-17T09:21:39;8.30;68.30
52034;DHT22;38045;52.988;6.536;2024-03-17T09:24:06;8.30;68.60
52034;DHT22;38045;52.988;6.536;2024-03-17T09:26:33;8.40;69.40
52034;DHT22;38045;52.988;6.536;2024-03-17T09:29:00;8.60;69.30
52034;DHT22;38045;52.988;6.536;2024-03-17T09:31:25;8.70;69.00
52034;DHT22;38045;52.988;6.536;2024-03-17T09:33:51;9.00;68.60
52034;DHT22;38045;52.988;6.536;2024-03-17T09:36:17;9.20;68.60
52034;DHT22;38045;52.988;6.536;2024-03-17T09:38:44;9.40;68.50
52034;DHT22;38045;52.988;6.536;2024-03-17T09:41:36;9.40;66.50
52034;DHT22;38045;52.988;6.536;2024-03-17T09:44:06;9.30;66.90
52034;DHT22;38045;52.988;6.536;2024-03-17T09:46:35;9.30;67.50
52034;DHT22;38045;52.988;6.536;2024-03-17T09:49:01;9.30;67.10
52034;DHT22;38045;52.988;6.536;2024-03-17T09:51:27;9.30;67.90
52034;DHT22;38045;52.988;6.536;2024-03-17T09:53:53;9.30;66.10
52034;DHT22;38045;52.988;6.536;2024-03-17T09:56:20;9.40;67.60
52034;DHT22;38045;52.988;6.536;2024-03-17T10:01:12;9.40;68.30
52034;DHT22;38045;52.988;6.536;2024-03-17T10:03:50;9.40;67.20
52034;DHT22;38045;52.988;6.536;2024-03-17T10:06:30;9.40;66.20
52034;DHT22;38045;52.988;6.536;2024-03-17T10:08:57;9.40;66.90
52034;DHT22;38045;52.988;6.536;2024-03-17T10:11:24;9.40;67.00
52034;DHT22;38045;52.988;6.536;2024-03-17T10:14:08;9.40;66.80
52034;DHT22;38045;52.988;6.536;2024-03-17T10:16:35;9.40;67.10
52034;DHT22;38045;52.988;6.536;2024-03-17T10:21:36;9.40;66.80
52034;DHT22;38045;52.988;6.536;2024-03-17T10:24:22;9.40;66.80
52034;DHT22;38045;52.988;6.536;2024-03-17T10:26:59;9.50;66.50
52034;DHT22;38045;52.988;6.536;2024-03-17T10:29:32;9.60;66.40
52034;DHT22;38045;52.988;6.536;2024-03-17T10:32:13;9.60;67.60
52034;DHT22;38045;52.988;6.536;2024-03-17T10:34:39;9.70;67.40
52034;DHT22;38045;52.988;6.536;2024-03-17T10:37:11;9.70;66.50
52034;DHT22;38045;52.988;6.536;2024-03-17T10:39:40;9.80;66.30
52034;DHT22;38045;52.988;6.536;2024-03-17T10:42:08;9.90;67.80
52034;DHT22;38045;52.988;6.536;2024-03-17T10:44:38;10.00;66.60
52034;DHT22;38045;52.988;6.536;2024-03-17T10:47:05;10.00;67.60
52034;DHT22;38045;52.988;6.536;2024-03-17T10:49:38;10.00;65.80
52034;DHT22;38045;52.988;6.536;2024-03-17T10:52:06;10.00;65.90
52034;DHT22;38045;52.988;6.536;2024-03-17T10:54:33;10.00;66.60
52034;DHT22;38045;52.988;6.536;2024-03-17T10:57:17;10.00;65.70
52034;DHT22;38045;52.988;6.536;2024-03-17T10:59:49;9.80;66.10
52034;DHT22;38045;52.988;6.536;2024-03-17T11:02:26;9.80;66.40
52034;DHT22;38045;52.988;6.536;2024-03-17T11:04:56;9.80;66.40
52034;DHT22;38045;52.988;6.536;2024-03-17T11:07:22;9.90;66.50
52034;DHT22;38045;52.988;6.536;2024-03-17T11:09:50;9.90;66.60
52034;DHT22;38045;52.988;6.536;2024-03-17T11:17:48;10.00;65.90
52034;DHT22;38045;52.988;6.536;2024-03-17T11:20:19;10.00;65.00
52034;DHT22;38045;52.988;6.536;2024-03-17T11:22:49;10.00;65.00
52034;DHT22;38045;52.988;6.536;2024-03-17T11:28:09;10.00;65.80
52034;DHT22;38045;52.988;6.536;2024-03-17T11:38:52;10.00;64.30
52034;DHT22;38045;52.988;6.536;2024-03-17T11:46:54;10.00;63.70
52034;DHT22;38045;52.988;6.536;2024-03-17T11:49:37;10.10;64.60
52034;DHT22;38045;52.988;6.536;2024-03-17T11:52:23;10.20;63.70
52034;DHT22;38045;52.988;6.536;2024-03-17T11:54:49;10.20;62.30
52034;DHT22;38045;52.988;6.536;2024-03-17T11:57:23;10.30;63.70
52034;DHT22;38045;52.988;6.536;2024-03-17T11:59:50;10.40;63.20
52034;DHT22;38045;52.988;6.536;2024-03-17T12:02:31;10.50;63.10
52034;DHT22;38045;52.988;6.536;2024-03-17T12:04:58;10.60;63.60
52034;DHT22;38045;52.988;6.536;2024-03-17T12:07:24;10.60;61.10
52034;DHT22;38045;52.988;6.536;2024-03-17T12:09:50;10.60;63.30
52034;DHT22;38045;52.988;6.536;2024-03-17T12:12:21;10.60;61.80
52034;DHT22;38045;52.988;6.536;2024-03-17T12:14:48;10.60;61.20
52034;DHT22;38045;52.988;6.536;2024-03-17T12:17:21;10.70;61.30
52034;DHT22;38045;52.988;6.536;2024-03-17T12:19:48;10.70;60.20
52034;DHT22;38045;52.988;6.536;2024-03-17T12:22:17;10.70;61.30
52034;DHT22;38045;52.988;6.536;2024-03-17T12:24:48;10.80;59.70
52034;DHT22;38045;52.988;6.536;2024-03-17T12:27:26;10.80;59.00
52034;DHT22;38045;52.988;6.536;2024-03-17T12:29:53;10.90;59.90
52034;DHT22;38045;52.988;6.536;2024-03-17T12:32:20;10.90;59.10
52034;DHT22;38045;52.988;6.536;2024-03-17T12:34:51;10.90;60.80
52034;DHT22;38045;52.988;6.536;2024-03-17T12:37:25;10.90;58.70
52034;DHT22;38045;52.988;6.536;2024-03-17T12:39:56;10.90;58.90
52034;DHT22;38045;52.988;6.536;2024-03-17T12:42:26;10.90;58.80
52034;DHT22;38045;52.988;6.536;2024-03-17T12:44:57;11.00;60.00
52034;DHT22;38045;52.988;6.536;2024-03-17T12:47:24;11.00;58.80
52034;DHT22;38045;52.988;6.536;2024-03-17T12:49:51;11.00;58.90
52034;DHT22;38045;52.988;6.536;2024-03-17T12:52:22;11.00;58.00
52034;DHT22;38045;52.988;6.536;2024-03-17T12:55:05;11.10;59.60
52034;DHT22;38045;52.988;6.536;2024-03-17T13:00:46;11.10;58.80
52034;DHT22;38045;52.988;6.536;2024-03-17T13:03:25;11.10;58.70
52034;DHT22;38045;52.988;6.536;2024-03-17T13:05:51;11.10;58.50
52034;DHT22;38045;52.988;6.536;2024-03-17T13:08:17;11.10;59.00
52034;DHT22;38045;52.988;6.536;2024-03-17T13:10:43;11.10;59.00
52034;DHT22;38045;52.988;6.536;2024-03-17T13:13:09;11.10;58.80
52034;DHT22;38045;52.988;6.536;2024-03-17T13:15:35;11.20;58.60
52034;DHT22;38045;52.988;6.536;2024-03-17T13:18:04;11.30;57.40
52034;DHT22;38045;52.988;6.536;2024-03-17T13:20:31;11.30;57.70
52034;DHT22;38045;52.988;6.536;2024-03-17T13:22:57;11.30;56.50
52034;DHT22;38045;52.988;6.536;2024-03-17T13:25:24;11.20;56.70
52034;DHT22;38045;52.988;6.536;2024-03-17T13:27:53;11.30;56.40
52034;DHT22;38045;52.988;6.536;2024-03-17T13:30:21;11.30;56.40
52034;DHT22;38045;52.988;6.536;2024-03-17T13:32:52;11.30;57.70
52034;DHT22;38045;52.988;6.536;2024-03-17T13:35:29;11.20;58.00
52034;DHT22;38045;52.988;6.536;2024-03-17T13:37:56;11.20;57.80
52034;DHT22;38045;52.988;6.536;2024-03-17T13:40:25;11.20;57.10
52034;DHT22;38045;52.988;6.536;2024-03-17T13:42:55;11.10;56.30
52034;DHT22;38045;52.988;6.536;2024-03-17T13:45:23;11.10;57.30
52034;DHT22;38045;52.988;6.536;2024-03-17T13:47:52;11.10;57.10
52034;DHT22;38045;52.988;6.536;2024-03-17T13:50:19;11.10;57.40
52034;DHT22;38045;52.988;6.536;2024-03-17T13:52:44;11.10;57.10
52034;DHT22;38045;52.988;6.536;2024-03-17T13:57:39;11.10;58.00
52034;DHT22;38045;52.988;6.536;2024-03-17T14:00:05;11.10;56.90
52034;DHT22;38045;52.988;6.536;2024-03-17T14:02:33;11.10;57.20
52034;DHT22;38045;52.988;6.536;2024-03-17T14:04:58;11.10;55.60
52034;DHT22;38045;52.988;6.536;2024-03-17T14:07:24;11.00;56.80
52034;DHT22;38045;52.988;6.536;2024-03-17T14:09:50;11.00;56.70
52034;DHT22;38045;52.988;6.536;2024-03-17T14:12:16;11.00;56.20
52034;DHT22;38045;52.988;6.536;2024-03-17T14:14:41;11.00;56.70
52034;DHT22;38045;52.988;6.536;2024-03-17T14:17:09;11.00;56.70
52034;DHT22;38045;52.988;6.536;2024-03-17T14:19:34;11.00;57.10
52034;DHT22;38045;52.988;6.536;2024-03-17T14:22:00;10.90;56.10
52034;DHT22;38045;52.988;6.536;2024-03-17T14:24:26;10.90;57.10
52034;DHT22;38045;52.988;6.536;2024-03-17T14:26:52;10.90;56.90
52034;DHT22;38045;52.988;6.536;2024-03-17T14:29:18;10.90;57.30
52034;DHT22;38045;52.988;6.536;2024-03-17T14:31:43;10.90;57.30
52034;DHT22;38045;52.988;6.536;2024-03-17T14:34:11;10.90;57.80
52034;DHT22;38045;52.988;6.536;2024-03-17T14:36:37;10.90;57.50
52034;DHT22;38045;52.988;6.536;2024-03-17T14:39:03;10.90;57.30
52034;DHT22;38045;52.988;6.536;2024-03-17T14:41:31;10.90;57.90
52034;DHT22;38045;52.988;6.536;2024-03-17T14:43:57;11.00;58.20
52034;DHT22;38045;52.988;6.536;2024-03-17T14:46:23;11.00;58.10
52034;DHT22;38045;52.988;6.536;2024-03-17T14:48:49;11.00;58.60
52034;DHT22;38045;52.988;6.536;2024-03-17T14:51:17;11.00;58.20
52034;DHT22;38045;52.988;6.536;2024-03-17T14:53:43;10.90;57.90
52034;DHT22;38045;52.988;6.536;2024-03-17T14:56:17;10.90;57.90
52034;DHT22;38045;52.988;6.536;2024-03-17T14:58:43;10.90;57.70
52034;DHT22;38045;52.988;6.536;2024-03-17T15:01:10;10.90;57.10
52034;DHT22;38045;52.988;6.536;2024-03-17T15:03:36;10.90;57.30
52034;DHT22;38045;52.988;6.536;2024-03-17T15:06:01;10.90;58.00
52034;DHT22;38045;52.988;6.536;2024-03-17T15:08:29;10.90;58.10
52034;DHT22;38045;52.988;6.536;2024-03-17T15:10:56;10.90;58.30
52034;DHT22;38045;52.988;6.536;2024-03-17T15:13:22;10.90;57.90
52034;DHT22;38045;52.988;6.536;2024-03-17T15:15:49;11.00;58.10
52034;DHT22;38045;52.988;6.536;2024-03-17T15:18:15;11.00;58.00
52034;DHT22;38045;52.988;6.536;2024-03-17T15:20:41;11.00;57.90
52034;DHT22;38045;52.988;6.536;2024-03-17T15:23:07;10.90;57.80
52034;DHT22;38045;52.988;6.536;2024-03-17T15:25:33;10.90;58.00
52034;DHT22;38045;52.988;6.536;2024-03-17T15:27:58;10.90;58.00
52034;DHT22;38045;52.988;6.536;2024-03-17T15:30:26;10.90;57.00
52034;DHT22;38045;52.988;6.536;2024-03-17T15:32:55;10.90;57.80
52034;DHT22;38045;52.988;6.536;2024-03-17T15:35:23;10.90;57.90
52034;DHT22;38045;52.988;6.536;2024-03-17T15:37:49;10.90;58.20
52034;DHT22;38045;52.988;6.536;2024-03-17T15:40:15;10.90;58.40
52034;DHT22;38045;52.988;6.536;2024-03-17T15:42:45;10.90;58.30
52034;DHT22;38045;52.988;6.536;2024-03-17T15:45:12;10.90;57.90
52034;DHT22;38045;52.988;6.536;2024-03-17T15:47:37;10.90;57.80
52034;DHT22;38045;52.988;6.536;2024-03-17T15:50:03;10.90;58.00
52034;DHT22;38045;52.988;6.536;2024-03-17T15:52:29;10.80;58.10
52034;DHT22;38045;52.988;6.536;2024-03-17T15:54:56;10.80;58.20
52034;DHT22;38045;52.988;6.536;2024-03-17T15:57:22;10.80;58.10
52034;DHT22;38045;52.988;6.536;2024-03-17T15:59:48;10.80;58.30
52034;DHT22;38045;52.988;6.536;2024-03-17T16:02:13;10.80;58.90
52034;DHT22;38045;52.988;6.536;2024-03-17T16:04:39;10.80;58.50
52034;DHT22;38045;52.988;6.536;2024-03-17T16:07:06;10.80;58.20
52034;DHT22;38045;52.988;6.536;2024-03-17T16:09:32;10.70;58.50
52034;DHT22;38045;52.988;6.536;2024-03-17T16:11:57;10.70;58.70
52034;DHT22;38045;52.988;6.536;2024-03-17T16:14:24;10.70;59.10
52034;DHT22;38045;52.988;6.536;2024-03-17T16:16:50;10.70;58.70
52034;DHT22;38045;52.988;6.536;2024-03-17T16:19:16;10.70;59.20